EmailTwitter


Observations de surface / Québec / LFRZ

Régions: Québec | Canada | États-Unis | Europe | France | UK | Ailleurs
Station
Affichage
Infos & localisation pour LFRZ | Aide pour décoder les METARs

Observations prises le 2017-09-21 à 10H30 UTC à ST. NAZAIRE/MONT, FR (LFRZ)

Etat du ciel: ciel variable.

Température: 19.0 Celsius

Point de rosée: 15.0 Celsius

Humidité relative: 78%

Indice Humidex: 23.

Vents: Sud-sud-ouest à 22 km/h ou 12 noeuds.

Pression au niveau moyen de la mer: 101.70 kilopascals.

Visibilité horizontale: 6.21 milles terrestres ou 9.94 kilomètres.

Observation METAR:

LFRZ 211030Z AUTO 20012KT 9999 SCT019 SCT026 19/15 Q1017 BECMG BKN014 BKN040=